Time;durP1;ratioP1;P1;durP2;ratioP2;P2;SDS_P1;SDS_P2;PMS_P1;PMS_P2;Temp;Humidity;BMP_temperature;BMP_pressure;BME280_temperature;BME280_humidity;BME280_pressure;Samples;Min_cycle;Max_cycle;Signal;HPM_P1;HPM_P2
2022/03/22 13:30:19;;;;;;;4.68;3.58;;;;;;;;;;7370593;19;132488;-15
2022/03/22 13:32:51;;;;;;;3.83;2.95;;;;;;;;;;7364673;19;153515;-14
2022/03/22 13:35:23;;;;;;;5.00;3.40;;;;;;;;;;7364658;19;161897;-13
2022/03/22 13:37:55;;;;;;;4.93;2.75;;;;;;;;;;7363653;19;162428;-13
2022/03/22 13:40:26;;;;;;;5.43;3.33;;;;;;;;;;7364918;19;154045;-13
2022/03/22 13:43:03;;;;;;;4.60;3.20;;;;;;;;;;7364488;19;153560;-13
2022/03/22 13:45:38;;;;;;;4.80;3.17;;;;;;;;;;7363015;19;162179;-14
2022/03/22 13:48:14;;;;;;;5.35;3.08;;;;;;;;;;7363765;19;162527;-15
2022/03/22 13:50:47;;;;;;;5.55;3.50;;;;;;;;;;7363991;19;153869;-16
2022/03/22 13:53:20;;;;;;;4.25;3.20;;;;;;;;;;7364092;19;153860;-13
2022/03/22 13:55:54;;;;;;;4.72;2.97;;;;;;;;;;7363750;19;162590;-15
2022/03/22 13:58:28;;;;;;;4.55;2.83;;;;;;;;;;7361225;19;162527;-15
2022/03/22 14:01:03;;;;;;;5.80;3.15;;;;;;;;;;7364062;19;154003;-14
2022/03/22 14:03:35;;;;;;;7.50;3.17;;;;;;;;;;7363941;19;153610;-14
2022/03/22 14:06:06;;;;;;;5.80;2.80;;;;;;;;;;7363479;19;161848;-14
2022/03/22 14:08:40;;;;;;;5.93;3.33;;;;;;;;;;7363823;19;162436;-16
2022/03/22 14:11:12;;;;;;;20.10;8.13;;;;;;;;;;7363874;19;154104;-12
2022/03/22 14:13:43;;;;;;;52.97;20.85;;;;;;;;;;7363521;19;153730;-13
2022/03/22 14:16:17;;;;;;;54.03;21.00;;;;;;;;;;7366080;19;161851;-13
2022/03/22 14:18:48;;;;;;;26.50;11.60;;;;;;;;;;7363931;19;162537;-13
2022/03/22 14:21:19;;;;;;;44.08;17.98;;;;;;;;;;7367380;19;154183;-13
2022/03/22 14:23:50;;;;;;;115.80;46.17;;;;;;;;;;7365630;19;153748;-13
2022/03/22 14:26:22;;;;;;;186.18;71.80;;;;;;;;;;7367562;19;161803;-13
2022/03/22 14:28:53;;;;;;;198.18;81.65;;;;;;;;;;7362932;19;162855;-17
2022/03/22 14:31:27;;;;;;;210.52;87.13;;;;;;;;;;7332860;19;154385;-14
2022/03/22 14:33:58;;;;;;;166.63;72.35;;;;;;;;;;7334062;19;153808;-13
2022/03/22 14:36:27;;;;;;;164.73;68.90;;;;;;;;;;7333766;19;161940;-13
2022/03/22 14:38:58;;;;;;;161.95;69.07;;;;;;;;;;7331292;19;162158;-13
2022/03/22 14:41:30;;;;;;;150.38;64.45;;;;;;;;;;7334096;19;154046;-13
2022/03/22 14:44:02;;;;;;;132.77;57.25;;;;;;;;;;7333923;19;153659;-14
2022/03/22 14:46:36;;;;;;;120.03;51.03;;;;;;;;;;7333131;19;162043;-14
2022/03/22 14:49:07;;;;;;;120.90;50.38;;;;;;;;;;7333271;19;162449;-14
2022/03/22 14:54:22;;;;;;;119.78;50.53;;;;;;;;;;7333684;19;153978;-12
2022/03/22 14:59:37;;;;;;;117.95;52.58;;;;;;;;;;7331865;19;163022;-15
2022/03/22 15:02:13;;;;;;;113.25;49.40;;;;;;;;;;7333556;19;154032;-14
2022/03/22 15:04:47;;;;;;;94.85;43.13;;;;;;;;;;7332973;19;153646;-13
2022/03/22 15:07:21;;;;;;;99.13;43.92;;;;;;;;;;7332851;19;161756;-13
2022/03/22 15:09:54;;;;;;;100.55;44.42;;;;;;;;;;7332803;19;162734;-14
2022/03/22 15:12:26;;;;;;;95.18;42.88;;;;;;;;;;7333110;19;153899;-14
2022/03/22 15:14:58;;;;;;;91.30;43.20;;;;;;;;;;7332177;19;153646;-15
2022/03/22 15:17:33;;;;;;;96.25;43.97;;;;;;;;;;7332833;19;161788;-14
2022/03/22 15:20:04;;;;;;;94.13;43.47;;;;;;;;;;7331068;19;162363;-14
2022/03/22 15:22:35;;;;;;;89.15;41.17;;;;;;;;;;7333325;19;153914;-15
2022/03/22 15:25:08;;;;;;;82.50;40.47;;;;;;;;;;7333044;19;153589;-14
2022/03/22 15:27:39;;;;;;;85.82;37.70;;;;;;;;;;7332325;19;162430;-14
2022/03/22 15:30:11;;;;;;;78.50;37.03;;;;;;;;;;7332609;19;162376;-15
2022/03/22 15:32:45;;;;;;;73.78;35.10;;;;;;;;;;7332605;19;153912;-14
2022/03/22 15:35:20;;;;;;;73.80;37.30;;;;;;;;;;7332731;19;153609;-16
2022/03/22 15:37:51;;;;;;;82.35;37.67;;;;;;;;;;7332052;19;162017;-13
2022/03/22 15:40:23;;;;;;;78.00;37.10;;;;;;;;;;7330164;19;162526;-13
2022/03/22 15:42:54;;;;;;;81.38;37.45;;;;;;;;;;7330221;19;153971;-14
2022/03/22 15:45:26;;;;;;;79.35;38.88;;;;;;;;;;7332522;19;153673;-14
2022/03/22 15:48:03;;;;;;;84.47;38.70;;;;;;;;;;7331722;19;161879;-14
2022/03/22 15:50:35;;;;;;;75.63;36.10;;;;;;;;;;7331956;19;162341;-14
2022/03/22 15:53:09;;;;;;;76.43;36.55;;;;;;;;;;7332352;19;153980;-17
2022/03/22 15:55:40;;;;;;;79.35;37.80;;;;;;;;;;7331763;19;153739;-15
2022/03/22 15:58:11;;;;;;;77.38;37.55;;;;;;;;;;7331672;19;161897;-15
2022/03/22 16:00:43;;;;;;;69.57;35.33;;;;;;;;;;7329586;19;162484;-13
2022/03/22 16:03:17;;;;;;;72.38;34.10;;;;;;;;;;7332101;19;153889;-14
2022/03/22 16:05:48;;;;;;;70.15;35.00;;;;;;;;;;7330513;19;153653;-14
2022/03/22 16:08:19;;;;;;;67.63;34.40;;;;;;;;;;7331265;19;161781;-14
2022/03/22 16:10:51;;;;;;;64.22;32.60;;;;;;;;;;7331301;19;162606;-12
2022/03/22 16:13:22;;;;;;;67.38;32.70;;;;;;;;;;7330601;19;153815;-14
2022/03/22 16:15:54;;;;;;;63.88;30.27;;;;;;;;;;7331609;19;153571;-15
2022/03/22 16:18:30;;;;;;;55.28;27.35;;;;;;;;;;7331185;19;161992;-13
2022/03/22 16:21:02;;;;;;;51.35;28.85;;;;;;;;;;7328427;19;162379;-13
2022/03/22 16:23:34;;;;;;;66.22;31.35;;;;;;;;;;7330923;19;153974;-14
2022/03/22 16:26:07;;;;;;;61.00;28.55;;;;;;;;;;7331208;19;153633;-14
2022/03/22 16:28:40;;;;;;;62.75;29.92;;;;;;;;;;7329359;19;162061;-14
2022/03/22 16:31:11;;;;;;;60.17;29.27;;;;;;;;;;7330916;19;162579;-15
2022/03/22 16:39:25;;;;;;;57.38;28.92;;;;;;;;;;7330457;19;161795;-14
2022/03/22 16:42:01;;;;;;;57.13;29.45;;;;;;;;;;7330201;19;162409;-12
2022/03/22 16:44:34;;;;;;;56.15;28.02;;;;;;;;;;7330670;19;153990;-15
2022/03/22 16:47:10;;;;;;;61.83;28.73;;;;;;;;;;7330579;19;153579;-16
2022/03/22 16:49:46;;;;;;;54.80;27.60;;;;;;;;;;7330062;19;162029;-15
2022/03/22 16:52:19;;;;;;;57.70;29.80;;;;;;;;;;7329354;19;162597;-16
2022/03/22 16:54:52;;;;;;;;;;;;;;;;;;7330410;19;154037;-16
2022/03/22 16:57:23;;;;;;;54.65;27.63;;;;;;;;;;7330367;19;153332;-16
2022/03/22 16:59:55;;;;;;;59.70;27.35;;;;;;;;;;7328368;19;162219;-15
2022/03/22 17:02:26;;;;;;;53.72;29.17;;;;;;;;;;7328613;19;162170;-15
2022/03/22 17:05:01;;;;;;;55.70;26.85;;;;;;;;;;7329697;19;154008;-16
2022/03/22 17:07:36;;;;;;;54.75;26.45;;;;;;;;;;7329771;19;154004;-14
2022/03/22 17:10:08;;;;;;;57.45;27.33;;;;;;;;;;7329097;19;161712;-15
2022/03/22 17:12:39;;;;;;;53.42;26.65;;;;;;;;;;7329273;19;162580;-13
2022/03/22 17:15:11;;;;;;;53.72;28.50;;;;;;;;;;7329362;19;154131;-14
2022/03/22 17:17:42;;;;;;;50.87;26.53;;;;;;;;;;7329108;19;154161;-14
2022/03/22 17:20:18;;;;;;;55.97;26.75;;;;;;;;;;7328443;19;162039;-15
2022/03/22 17:22:50;;;;;;;53.63;25.95;;;;;;;;;;7328822;19;162497;-14
2022/03/22 17:25:23;;;;;;;61.13;26.53;;;;;;;;;;7329428;19;154313;-16
2022/03/22 17:27:56;;;;;;;53.55;27.42;;;;;;;;;;7328527;19;153793;-13
2022/03/22 17:30:29;;;;;;;53.87;26.13;;;;;;;;;;7328904;19;162044;-14
2022/03/22 17:33:01;;;;;;;;;;;;;;;;;;7329004;19;162343;-14
2022/03/22 17:35:35;;;;;;;50.22;24.45;;;;;;;;;;7329014;19;154439;-15
2022/03/22 17:38:07;;;;;;;47.78;26.63;;;;;;;;;;7328754;19;153805;-14
2022/03/22 17:40:39;;;;;;;48.38;25.45;;;;;;;;;;7327727;19;161787;-14
2022/03/22 17:43:11;;;;;;;46.40;24.70;;;;;;;;;;7328460;19;162531;-15
2022/03/22 17:45:42;;;;;;;47.55;26.25;;;;;;;;;;7328698;19;153743;-13
2022/03/22 17:48:14;;;;;;;46.25;25.70;;;;;;;;;;7328305;19;153819;-13
2022/03/22 17:50:48;;;;;;;46.22;24.50;;;;;;;;;;7326911;19;161583;-15
2022/03/22 17:53:19;;;;;;;49.38;24.90;;;;;;;;;;7326663;19;162368;-13
2022/03/22 17:55:50;;;;;;;44.00;23.60;;;;;;;;;;7328118;19;153878;-14
2022/03/22 17:58:22;;;;;;;47.50;24.73;;;;;;;;;;7328103;19;153705;-14
2022/03/22 18:00:54;;;;;;;45.33;23.30;;;;;;;;;;7327147;19;161879;-15
2022/03/22 18:03:28;;;;;;;43.40;23.90;;;;;;;;;;7327660;19;162637;-13
2022/03/22 18:06:02;;;;;;;45.15;23.73;;;;;;;;;;7333164;19;154239;-15
2022/03/22 18:08:33;;;;;;;42.30;23.42;;;;;;;;;;7334743;19;153619;-14
2022/03/22 18:13:54;;;;;;;43.58;24.35;;;;;;;;;;7332498;19;162429;-14
2022/03/22 18:16:25;;;;;;;42.45;23.33;;;;;;;;;;7334713;19;154066;-13
2022/03/22 18:19:07;;;;;;;41.80;22.83;;;;;;;;;;7334363;19;153388;-15
2022/03/22 18:21:41;;;;;;;44.90;23.48;;;;;;;;;;7332945;19;161708;-14
2022/03/22 18:24:14;;;;;;;48.42;23.95;;;;;;;;;;7334101;19;162734;-15
2022/03/22 18:26:46;;;;;;;44.00;22.70;;;;;;;;;;7334237;19;154244;-14
2022/03/22 18:29:18;;;;;;;40.20;22.20;;;;;;;;;;7332520;19;153908;-14
2022/03/22 18:31:49;;;;;;;43.80;23.35;;;;;;;;;;7333869;19;161737;-16
2022/03/22 18:34:20;;;;;;;36.97;22.63;;;;;;;;;;7333556;19;162144;-14
2022/03/22 18:36:54;;;;;;;41.15;23.27;;;;;;;;;;7333734;19;154071;-15
2022/03/22 18:39:28;;;;;;;44.45;23.45;;;;;;;;;;7333992;19;153635;-14
2022/03/22 18:42:00;;;;;;;37.03;20.73;;;;;;;;;;7332388;19;161879;-15
2022/03/22 18:44:32;;;;;;;40.15;20.88;;;;;;;;;;7333621;19;162369;-14
2022/03/22 18:47:04;;;;;;;42.63;21.33;;;;;;;;;;7334008;19;154127;-13
2022/03/22 18:49:35;;;;;;;36.60;21.77;;;;;;;;;;7332500;19;153550;-14
2022/03/22 18:52:11;;;;;;;43.42;22.17;;;;;;;;;;7333322;19;161879;-17
2022/03/22 18:54:51;;;;;;;32.38;18.30;;;;;;;;;;7333329;19;162512;-14
2022/03/22 18:57:22;;;;;;;37.80;21.77;;;;;;;;;;7333621;19;154120;-13
2022/03/22 18:59:53;;;;;;;33.83;21.38;;;;;;;;;;7333555;19;153595;-14
2022/03/22 19:02:24;;;;;;;37.65;19.98;;;;;;;;;;7331864;19;161590;-14
2022/03/22 19:04:56;;;;;;;36.42;20.65;;;;;;;;;;7333174;19;162348;-15
2022/03/22 19:07:30;;;;;;;38.83;20.27;;;;;;;;;;7333639;19;153968;-15
2022/03/22 19:10:02;;;;;;;35.30;19.75;;;;;;;;;;7333328;19;153571;-14
2022/03/22 19:12:34;;;;;;;36.92;19.98;;;;;;;;;;7333077;19;162073;-15
2022/03/22 19:15:05;;;;;;;35.83;20.02;;;;;;;;;;7333136;19;162459;-15
2022/03/22 19:17:50;;;;;;;36.83;20.17;;;;;;;;;;7333260;19;153958;-14
2022/03/22 19:20:23;;;;;;;37.03;19.98;;;;;;;;;;7331932;19;153672;-14
2022/03/22 19:22:57;;;;;;;35.78;20.70;;;;;;;;;;7330862;19;161823;-15
2022/03/22 19:25:30;;;;;;;35.08;18.80;;;;;;;;;;7332772;19;162391;-15
2022/03/22 19:28:04;;;;;;;34.00;19.33;;;;;;;;;;7332613;19;153992;-15
2022/03/22 19:32:53;;;;;;;37.47;18.88;;;;;;;;;;7331922;19;153605;-15
2022/03/22 19:33:27;;;;;;;34.72;18.50;;;;;;;;;;7332638;19;162137;-16
2022/03/22 19:35:58;;;;;;;34.58;18.38;;;;;;;;;;7332543;19;162512;-15
2022/03/22 19:38:32;;;;;;;34.90;18.85;;;;;;;;;;7332942;19;154021;-15
2022/03/22 19:41:03;;;;;;;30.33;17.88;;;;;;;;;;7332747;19;153859;-15
2022/03/22 19:43:35;;;;;;;31.63;17.45;;;;;;;;;;7328845;19;162004;-14
2022/03/22 19:46:06;;;;;;;33.03;18.23;;;;;;;;;;7332092;19;162356;-13
2022/03/22 19:48:37;;;;;;;28.13;17.73;;;;;;;;;;7332505;19;154117;-14
2022/03/22 19:51:09;;;;;;;29.40;16.80;;;;;;;;;;7332382;19;153743;-15
2022/03/22 19:53:43;;;;;;;28.40;16.30;;;;;;;;;;7332122;19;161881;-14
2022/03/22 19:56:15;;;;;;;32.35;18.80;;;;;;;;;;7330777;19;162038;-14
2022/03/22 19:58:47;;;;;;;24.38;14.35;;;;;;;;;;7330867;19;153975;-16
2022/03/22 20:01:21;;;;;;;18.17;11.10;;;;;;;;;;7331843;19;153624;-16
2022/03/22 20:03:53;;;;;;;17.38;10.63;;;;;;;;;;7329247;19;161747;-17
2022/03/22 20:06:36;;;;;;;15.32;9.40;;;;;;;;;;7332439;19;162506;-16
2022/03/22 20:09:13;;;;;;;23.38;13.45;;;;;;;;;;7329664;19;154161;-16
2022/03/22 20:11:44;;;;;;;32.45;15.65;;;;;;;;;;7326688;19;153577;-15
2022/03/22 20:14:15;;;;;;;21.20;12.23;;;;;;;;;;7327377;19;161731;-15
2022/03/22 20:16:47;;;;;;;17.60;9.45;;;;;;;;;;7328213;19;162841;-14
2022/03/22 20:19:19;;;;;;;16.77;8.75;;;;;;;;;;7331558;19;154233;-15
2022/03/22 20:21:51;;;;;;;14.10;8.45;;;;;;;;;;7332024;19;153659;-15
2022/03/22 20:24:24;;;;;;;15.85;8.82;;;;;;;;;;7331135;19;161778;-15
2022/03/22 20:26:56;;;;;;;15.15;8.20;;;;;;;;;;7333003;19;162364;-15
2022/03/22 20:29:27;;;;;;;17.05;8.65;;;;;;;;;;7331849;19;153952;-16
2022/03/22 20:31:59;;;;;;;14.82;8.07;;;;;;;;;;7334174;19;153832;-14
2022/03/22 20:34:31;;;;;;;15.50;8.33;;;;;;;;;;7333629;19;161906;-14
2022/03/22 20:37:02;;;;;;;14.57;8.30;;;;;;;;;;7334039;19;162365;-13
2022/03/22 20:39:36;;;;;;;12.00;7.70;;;;;;;;;;7334045;19;153991;-15
2022/03/22 20:42:10;;;;;;;11.13;7.40;;;;;;;;;;7334315;19;153697;-13
2022/03/22 20:44:42;;;;;;;12.75;7.65;;;;;;;;;;7334174;19;162055;-14
2022/03/22 20:47:14;;;;;;;13.30;7.90;;;;;;;;;;7332573;19;162330;-15
2022/03/22 20:49:48;;;;;;;11.30;7.10;;;;;;;;;;7334231;19;154464;-16
2022/03/22 20:52:19;;;;;;;10.85;7.50;;;;;;;;;;7332106;19;153571;-16
2022/03/22 20:54:53;;;;;;;14.32;8.35;;;;;;;;;;7332198;19;163010;-15
2022/03/22 21:00:10;;;;;;;13.27;8.35;;;;;;;;;;7332455;19;153902;-15
2022/03/22 21:02:42;;;;;;;15.50;10.65;;;;;;;;;;7331221;19;153687;-14
2022/03/22 21:05:13;;;;;;;22.45;11.60;;;;;;;;;;7333362;19;161778;-15
2022/03/22 21:07:44;;;;;;;20.23;11.07;;;;;;;;;;7331977;19;162468;-14
2022/03/22 21:10:19;;;;;;;21.45;12.10;;;;;;;;;;7334484;19;154650;-14
2022/03/22 21:12:50;;;;;;;20.20;11.27;;;;;;;;;;7330287;19;153754;-16
2022/03/22 21:15:22;;;;;;;18.30;11.13;;;;;;;;;;7333645;19;161885;-16
2022/03/22 21:17:53;;;;;;;20.35;10.48;;;;;;;;;;7333554;19;162532;-15
2022/03/22 21:20:25;;;;;;;18.35;9.93;;;;;;;;;;7329718;19;153709;-14
2022/03/22 21:22:56;;;;;;;16.65;10.52;;;;;;;;;;7329125;19;153585;-14
2022/03/22 21:25:30;;;;;;;18.85;10.93;;;;;;;;;;7329108;19;161986;-15
2022/03/22 21:28:01;;;;;;;18.83;9.40;;;;;;;;;;7331209;19;162336;-13
2022/03/22 21:30:32;;;;;;;18.00;9.27;;;;;;;;;;7332570;19;154228;-14
2022/03/22 21:33:04;;;;;;;14.63;8.93;;;;;;;;;;7328908;19;153558;-13
2022/03/22 21:35:35;;;;;;;15.90;10.05;;;;;;;;;;7328694;19;161682;-14
2022/03/22 21:38:08;;;;;;;16.90;9.55;;;;;;;;;;7328796;19;162409;-15
2022/03/22 21:40:41;;;;;;;;;;;;;;;;;;7333868;19;153977;-13
2022/03/22 21:43:13;;;;;;;17.15;10.35;;;;;;;;;;7335591;19;153513;-16
2022/03/22 21:45:45;;;;;;;23.50;12.05;;;;;;;;;;7337548;19;161919;-14
2022/03/22 21:48:16;;;;;;;26.13;12.80;;;;;;;;;;7339189;19;162634;-14
2022/03/22 21:50:47;;;;;;;17.15;10.95;;;;;;;;;;7336415;19;153960;-14
2022/03/22 21:53:19;;;;;;;17.15;10.60;;;;;;;;;;7338530;19;153802;-14
2022/03/22 21:55:53;;;;;;;19.55;10.45;;;;;;;;;;7335203;19;162094;-14
2022/03/22 21:58:25;;;;;;;17.65;9.73;;;;;;;;;;7334869;19;162641;-13
2022/03/22 22:00:58;;;;;;;18.58;10.27;;;;;;;;;;7338733;19;154139;-14
2022/03/22 22:03:30;;;;;;;20.17;10.95;;;;;;;;;;7338759;19;154728;-14
2022/03/22 22:06:01;;;;;;;20.23;10.60;;;;;;;;;;7337232;19;161576;-14
2022/03/22 22:08:32;;;;;;;20.02;9.18;;;;;;;;;;7338275;19;162571;-14
2022/03/22 22:11:06;;;;;;;17.73;10.40;;;;;;;;;;7338802;19;154118;-16
2022/03/22 22:13:38;;;;;;;17.35;10.10;;;;;;;;;;7338008;19;153623;-14
2022/03/22 22:16:09;;;;;;;22.48;12.98;;;;;;;;;;7337731;19;162521;-14
2022/03/22 22:18:40;;;;;;;22.83;11.98;;;;;;;;;;7336984;19;162468;-15
2022/03/22 22:21:12;;;;;;;20.02;10.80;;;;;;;;;;7337195;19;154109;-14
2022/03/22 22:23:45;;;;;;;19.83;11.35;;;;;;;;;;7338107;19;153563;-14
2022/03/22 22:26:19;;;;;;;;;;;;;;;;;;7336952;19;161659;-15
2022/03/22 22:28:50;;;;;;;18.00;10.80;;;;;;;;;;7335720;19;162632;-15
2022/03/22 22:34:07;;;;;;;19.70;10.82;;;;;;;;;;7338063;19;153621;-16
2022/03/22 22:36:38;;;;;;;18.02;10.48;;;;;;;;;;7336827;19;161870;-15
2022/03/22 22:39:10;;;;;;;20.52;12.05;;;;;;;;;;7335881;19;162452;-15
2022/03/22 22:41:44;;;;;;;17.73;10.52;;;;;;;;;;7337440;19;153849;-16
2022/03/22 22:44:15;;;;;;;15.60;9.85;;;;;;;;;;7336055;19;153621;-15
2022/03/22 22:46:46;;;;;;;20.45;10.73;;;;;;;;;;7335760;19;162169;-15
2022/03/22 22:49:20;;;;;;;18.50;10.55;;;;;;;;;;7335641;19;162441;-15
2022/03/22 22:51:51;;;;;;;19.38;10.38;;;;;;;;;;7335185;19;154092;-16
2022/03/22 22:54:25;;;;;;;17.92;10.90;;;;;;;;;;7337110;19;153620;-16
2022/03/22 22:56:59;;;;;;;18.73;10.93;;;;;;;;;;7336801;19;161808;-16
2022/03/22 22:59:31;;;;;;;18.17;10.30;;;;;;;;;;7336214;19;162388;-15
2022/03/22 23:02:02;;;;;;;16.00;9.90;;;;;;;;;;7336779;19;154219;-16
2022/03/22 23:04:33;;;;;;;15.05;9.50;;;;;;;;;;7335958;19;153879;-16
2022/03/22 23:12:34;;;;;;;17.00;9.75;;;;;;;;;;7336591;19;154010;-15
2022/03/22 23:15:07;;;;;;;16.63;9.43;;;;;;;;;;7335450;19;154056;-15
2022/03/22 23:17:38;;;;;;;13.60;8.50;;;;;;;;;;7335755;19;161477;-15
2022/03/22 23:20:12;;;;;;;16.05;9.85;;;;;;;;;;7335880;19;162602;-15
2022/03/22 23:22:43;;;;;;;16.83;9.98;;;;;;;;;;7333087;19;153994;-15
2022/03/22 23:25:14;;;;;;;18.40;10.30;;;;;;;;;;7331544;19;153617;-15
2022/03/22 23:27:48;;;;;;;21.67;11.38;;;;;;;;;;7331977;19;161718;-17
2022/03/22 23:30:19;;;;;;;20.20;9.63;;;;;;;;;;7334871;19;162548;-16
2022/03/22 23:32:51;;;;;;;22.13;9.68;;;;;;;;;;7332153;19;154526;-15
2022/03/22 23:35:22;;;;;;;18.70;9.50;;;;;;;;;;7329128;19;153784;-15
2022/03/22 23:37:54;;;;;;;17.60;9.63;;;;;;;;;;7328396;19;162470;-15
